sensor_id;sensor_type;location;lat;lon;timestamp;P1;durP1;ratioP1;P2;durP2;ratioP2
55813;SDS011;41743;43.012;-0.110;2022-11-15T00:01:20;14.57;;;7.05;;
55813;SDS011;41743;43.012;-0.110;2022-11-15T00:07:03;15.07;;;7.15;;
55813;SDS011;41743;43.012;-0.110;2022-11-15T00:16:26;12.55;;;5.57;;
55813;SDS011;41743;43.012;-0.110;2022-11-15T00:19:27;13.85;;;6.25;;
55813;SDS011;41743;43.012;-0.110;2022-11-15T00:37:50;16.08;;;6.95;;
55813;SDS011;41743;43.012;-0.110;2022-11-15T00:50:08;15.35;;;6.30;;
55813;SDS011;41743;43.012;-0.110;2022-11-15T00:53:08;10.93;;;4.78;;
55813;SDS011;41743;43.012;-0.110;2022-11-15T00:56:18;11.35;;;5.72;;
55813;SDS011;41743;43.012;-0.110;2022-11-15T01:02:41;8.82;;;4.60;;
55813;SDS011;41743;43.012;-0.110;2022-11-15T01:15:16;10.70;;;5.75;;
55813;SDS011;41743;43.012;-0.110;2022-11-15T01:24:46;6.88;;;3.65;;
55813;SDS011;41743;43.012;-0.110;2022-11-15T01:30:56;10.32;;;4.63;;
55813;SDS011;41743;43.012;-0.110;2022-11-15T01:36:33;4.05;;;2.45;;
55813;SDS011;41743;43.012;-0.110;2022-11-15T01:42:37;5.90;;;2.85;;
55813;SDS011;41743;43.012;-0.110;2022-11-15T01:45:20;7.30;;;3.75;;
55813;SDS011;41743;43.012;-0.110;2022-11-15T01:48:39;8.23;;;4.30;;
55813;SDS011;41743;43.012;-0.110;2022-11-15T01:51:09;8.93;;;4.38;;
55813;SDS011;41743;43.012;-0.110;2022-11-15T01:53:58;8.98;;;3.88;;
55813;SDS011;41743;43.012;-0.110;2022-11-15T01:56:31;6.47;;;2.97;;
55813;SDS011;41743;43.012;-0.110;2022-11-15T02:01:39;3.67;;;1.92;;
55813;SDS011;41743;43.012;-0.110;2022-11-15T02:07:06;7.13;;;2.95;;
55813;SDS011;41743;43.012;-0.110;2022-11-15T02:09:47;7.28;;;3.25;;
55813;SDS011;41743;43.012;-0.110;2022-11-15T02:12:18;4.85;;;2.70;;
55813;SDS011;41743;43.012;-0.110;2022-11-15T02:15:12;3.63;;;1.85;;
55813;SDS011;41743;43.012;-0.110;2022-11-15T02:18:06;6.45;;;3.42;;
55813;SDS011;41743;43.012;-0.110;2022-11-15T02:32:50;4.88;;;2.15;;
55813;SDS011;41743;43.012;-0.110;2022-11-15T02:38:21;4.53;;;2.25;;
55813;SDS011;41743;43.012;-0.110;2022-11-15T02:40:59;2.80;;;1.80;;
55813;SDS011;41743;43.012;-0.110;2022-11-15T02:49:41;2.83;;;0.90;;
55813;SDS011;41743;43.012;-0.110;2022-11-15T02:52:09;2.55;;;1.35;;
55813;SDS011;41743;43.012;-0.110;2022-11-15T02:54:52;1.15;;;0.90;;
55813;SDS011;41743;43.012;-0.110;2022-11-15T03:19:03;0.25;;;0.25;;
55813;SDS011;41743;43.012;-0.110;2022-11-15T03:24:58;0.30;;;0.30;;
55813;SDS011;41743;43.012;-0.110;2022-11-15T03:27:54;0.40;;;0.30;;
55813;SDS011;41743;43.012;-0.110;2022-11-15T03:34:06;0.60;;;0.38;;
55813;SDS011;41743;43.012;-0.110;2022-11-15T03:36:44;0.40;;;0.38;;
55813;SDS011;41743;43.012;-0.110;2022-11-15T03:46:08;0.52;;;0.30;;
55813;SDS011;41743;43.012;-0.110;2022-11-15T03:48:52;0.30;;;0.30;;
55813;SDS011;41743;43.012;-0.110;2022-11-15T03:52:30;0.57;;;0.38;;
55813;SDS011;41743;43.012;-0.110;2022-11-15T03:54:52;0.20;;;0.20;;
55813;SDS011;41743;43.012;-0.110;2022-11-15T03:57:50;0.47;;;0.38;;
55813;SDS011;41743;43.012;-0.110;2022-11-15T04:00:22;0.90;;;0.32;;
55813;SDS011;41743;43.012;-0.110;2022-11-15T04:35:05;0.40;;;0.32;;
55813;SDS011;41743;43.012;-0.110;2022-11-15T05:00:50;0.22;;;0.20;;
55813;SDS011;41743;43.012;-0.110;2022-11-15T05:34:27;0.80;;;0.30;;
55813;SDS011;41743;43.012;-0.110;2022-11-15T05:40:28;0.43;;;0.32;;
55813;SDS011;41743;43.012;-0.110;2022-11-15T05:53:19;11.65;;;4.57;;
55813;SDS011;41743;43.012;-0.110;2022-11-15T05:59:22;1.63;;;1.13;;
55813;SDS011;41743;43.012;-0.110;2022-11-15T06:02:18;2.13;;;0.47;;
55813;SDS011;41743;43.012;-0.110;2022-11-15T06:04:51;0.63;;;0.40;;
55813;SDS011;41743;43.012;-0.110;2022-11-15T06:10:36;0.20;;;0.20;;
55813;SDS011;41743;43.012;-0.110;2022-11-15T06:21:44;0.30;;;0.30;;
55813;SDS011;41743;43.012;-0.110;2022-11-15T06:27:28;0.20;;;0.20;;
55813;SDS011;41743;43.012;-0.110;2022-11-15T06:35:48;0.32;;;0.32;;
55813;SDS011;41743;43.012;-0.110;2022-11-15T06:38:36;0.30;;;0.30;;
55813;SDS011;41743;43.012;-0.110;2022-11-15T06:41:06;1.20;;;0.47;;
55813;SDS011;41743;43.012;-0.110;2022-11-15T06:44:20;0.68;;;0.45;;
55813;SDS011;41743;43.012;-0.110;2022-11-15T06:46:36;0.30;;;0.30;;
55813;SDS011;41743;43.012;-0.110;2022-11-15T06:54:50;0.60;;;0.30;;
55813;SDS011;41743;43.012;-0.110;2022-11-15T06:57:27;0.73;;;0.43;;
55813;SDS011;41743;43.012;-0.110;2022-11-15T07:00:02;1.83;;;0.50;;
55813;SDS011;41743;43.012;-0.110;2022-11-15T07:02:35;0.65;;;0.20;;
55813;SDS011;41743;43.012;-0.110;2022-11-15T07:05:01;0.70;;;0.30;;
55813;SDS011;41743;43.012;-0.110;2022-11-15T07:07:31;1.38;;;0.57;;
55813;SDS011;41743;43.012;-0.110;2022-11-15T07:10:04;15.45;;;5.60;;
55813;SDS011;41743;43.012;-0.110;2022-11-15T07:12:30;8.98;;;3.33;;
55813;SDS011;41743;43.012;-0.110;2022-11-15T07:14:56;8.88;;;5.68;;
55813;SDS011;41743;43.012;-0.110;2022-11-15T07:17:23;0.73;;;0.30;;
55813;SDS011;41743;43.012;-0.110;2022-11-15T07:19:49;0.20;;;0.20;;
55813;SDS011;41743;43.012;-0.110;2022-11-15T07:23:02;0.52;;;0.50;;
55813;SDS011;41743;43.012;-0.110;2022-11-15T07:25:12;0.40;;;0.40;;
55813;SDS011;41743;43.012;-0.110;2022-11-15T07:27:41;0.77;;;0.60;;
55813;SDS011;41743;43.012;-0.110;2022-11-15T07:30:08;0.60;;;0.30;;
55813;SDS011;41743;43.012;-0.110;2022-11-15T07:32:38;0.60;;;0.40;;
55813;SDS011;41743;43.012;-0.110;2022-11-15T07:35:07;1.08;;;0.50;;
55813;SDS011;41743;43.012;-0.110;2022-11-15T07:40:42;2.75;;;0.47;;
55813;SDS011;41743;43.012;-0.110;2022-11-15T07:43:09;0.43;;;0.40;;
55813;SDS011;41743;43.012;-0.110;2022-11-15T07:45:42;0.28;;;0.28;;
55813;SDS011;41743;43.012;-0.110;2022-11-15T07:48:26;0.70;;;0.70;;
55813;SDS011;41743;43.012;-0.110;2022-11-15T07:50:53;2.05;;;0.40;;
55813;SDS011;41743;43.012;-0.110;2022-11-15T07:53:22;0.30;;;0.30;;
55813;SDS011;41743;43.012;-0.110;2022-11-15T07:55:49;0.20;;;0.20;;
55813;SDS011;41743;43.012;-0.110;2022-11-15T07:58:15;0.32;;;0.30;;
55813;SDS011;41743;43.012;-0.110;2022-11-15T08:00:45;1.90;;;0.88;;
55813;SDS011;41743;43.012;-0.110;2022-11-15T08:03:13;0.30;;;0.30;;
55813;SDS011;41743;43.012;-0.110;2022-11-15T08:05:40;0.20;;;0.20;;
55813;SDS011;41743;43.012;-0.110;2022-11-15T08:08:07;0.77;;;0.28;;
55813;SDS011;41743;43.012;-0.110;2022-11-15T08:10:40;0.30;;;0.30;;
55813;SDS011;41743;43.012;-0.110;2022-11-15T08:13:07;0.20;;;0.20;;
55813;SDS011;41743;43.012;-0.110;2022-11-15T08:15:34;0.45;;;0.30;;
55813;SDS011;41743;43.012;-0.110;2022-11-15T08:18:01;2.17;;;0.43;;
55813;SDS011;41743;43.012;-0.110;2022-11-15T08:20:40;1.30;;;0.40;;
55813;SDS011;41743;43.012;-0.110;2022-11-15T08:23:07;0.90;;;0.40;;
55813;SDS011;41743;43.012;-0.110;2022-11-15T08:25:33;9.00;;;3.70;;
55813;SDS011;41743;43.012;-0.110;2022-11-15T08:28:09;9.77;;;4.10;;
55813;SDS011;41743;43.012;-0.110;2022-11-15T08:30:41;19.35;;;11.30;;
55813;SDS011;41743;43.012;-0.110;2022-11-15T08:33:11;7.43;;;4.05;;
55813;SDS011;41743;43.012;-0.110;2022-11-15T08:35:41;7.35;;;3.33;;
55813;SDS011;41743;43.012;-0.110;2022-11-15T08:38:13;4.00;;;2.10;;
55813;SDS011;41743;43.012;-0.110;2022-11-15T08:43:22;0.77;;;0.60;;
55813;SDS011;41743;43.012;-0.110;2022-11-15T08:45:49;0.20;;;0.20;;
55813;SDS011;41743;43.012;-0.110;2022-11-15T08:48:17;0.95;;;0.50;;
55813;SDS011;41743;43.012;-0.110;2022-11-15T08:50:51;2.28;;;0.20;;
55813;SDS011;41743;43.012;-0.110;2022-11-15T08:53:21;0.38;;;0.22;;
55813;SDS011;41743;43.012;-0.110;2022-11-15T08:55:50;1.38;;;0.60;;
55813;SDS011;41743;43.012;-0.110;2022-11-15T08:58:16;0.68;;;0.40;;
55813;SDS011;41743;43.012;-0.110;2022-11-15T09:00:45;0.40;;;0.28;;
55813;SDS011;41743;43.012;-0.110;2022-11-15T09:03:11;0.45;;;0.45;;
55813;SDS011;41743;43.012;-0.110;2022-11-15T09:05:40;0.68;;;0.30;;
55813;SDS011;41743;43.012;-0.110;2022-11-15T09:08:06;1.20;;;0.65;;
55813;SDS011;41743;43.012;-0.110;2022-11-15T09:10:32;0.30;;;0.13;;
55813;SDS011;41743;43.012;-0.110;2022-11-15T09:12:58;0.20;;;0.20;;
55813;SDS011;41743;43.012;-0.110;2022-11-15T09:15:24;0.10;;;0.10;;
55813;SDS011;41743;43.012;-0.110;2022-11-15T09:17:51;0.30;;;0.15;;
55813;SDS011;41743;43.012;-0.110;2022-11-15T09:20:17;0.55;;;0.20;;
55813;SDS011;41743;43.012;-0.110;2022-11-15T09:22:43;0.70;;;0.20;;
55813;SDS011;41743;43.012;-0.110;2022-11-15T09:25:09;0.60;;;0.22;;
55813;SDS011;41743;43.012;-0.110;2022-11-15T09:27:35;0.10;;;0.10;;
55813;SDS011;41743;43.012;-0.110;2022-11-15T09:30:01;0.43;;;0.10;;
55813;SDS011;41743;43.012;-0.110;2022-11-15T09:32:28;0.82;;;0.20;;
55813;SDS011;41743;43.012;-0.110;2022-11-15T09:34:55;1.45;;;0.10;;
55813;SDS011;41743;43.012;-0.110;2022-11-15T09:37:21;0.10;;;0.10;;
55813;SDS011;41743;43.012;-0.110;2022-11-15T09:39:47;0.20;;;0.20;;
55813;SDS011;41743;43.012;-0.110;2022-11-15T09:47:37;0.20;;;0.20;;
55813;SDS011;41743;43.012;-0.110;2022-11-15T09:50:27;0.22;;;0.22;;
55813;SDS011;41743;43.012;-0.110;2022-11-15T09:52:57;0.35;;;0.30;;
55813;SDS011;41743;43.012;-0.110;2022-11-15T09:55:27;0.10;;;0.10;;
55813;SDS011;41743;43.012;-0.110;2022-11-15T10:00:25;0.28;;;0.10;;
55813;SDS011;41743;43.012;-0.110;2022-11-15T10:03:07;0.20;;;0.20;;
55813;SDS011;41743;43.012;-0.110;2022-11-15T10:05:42;0.73;;;0.20;;
55813;SDS011;41743;43.012;-0.110;2022-11-15T10:11:09;0.20;;;0.20;;
55813;SDS011;41743;43.012;-0.110;2022-11-15T10:24:34;0.30;;;0.30;;
55813;SDS011;41743;43.012;-0.110;2022-11-15T10:27:07;0.20;;;0.20;;
55813;SDS011;41743;43.012;-0.110;2022-11-15T10:29:35;0.22;;;0.20;;
55813;SDS011;41743;43.012;-0.110;2022-11-15T10:32:04;0.82;;;0.20;;
55813;SDS011;41743;43.012;-0.110;2022-11-15T10:34:34;0.43;;;0.20;;
55813;SDS011;41743;43.012;-0.110;2022-11-15T10:37:04;1.35;;;0.25;;
55813;SDS011;41743;43.012;-0.110;2022-11-15T10:39:31;0.20;;;0.20;;
55813;SDS011;41743;43.012;-0.110;2022-11-15T10:44:43;0.35;;;0.35;;
55813;SDS011;41743;43.012;-0.110;2022-11-15T10:47:43;0.98;;;0.40;;
55813;SDS011;41743;43.012;-0.110;2022-11-15T10:50:04;1.58;;;0.77;;
55813;SDS011;41743;43.012;-0.110;2022-11-15T10:52:34;0.20;;;0.20;;
55813;SDS011;41743;43.012;-0.110;2022-11-15T10:55:04;0.32;;;0.20;;
55813;SDS011;41743;43.012;-0.110;2022-11-15T10:57:47;1.23;;;0.30;;
55813;SDS011;41743;43.012;-0.110;2022-11-15T11:03:04;0.57;;;0.30;;
55813;SDS011;41743;43.012;-0.110;2022-11-15T11:05:35;0.20;;;0.20;;
55813;SDS011;41743;43.012;-0.110;2022-11-15T11:10:34;0.38;;;0.20;;
55813;SDS011;41743;43.012;-0.110;2022-11-15T11:13:13;0.30;;;0.30;;
55813;SDS011;41743;43.012;-0.110;2022-11-15T11:15:39;0.28;;;0.28;;
55813;SDS011;41743;43.012;-0.110;2022-11-15T11:18:07;0.17;;;0.17;;
55813;SDS011;41743;43.012;-0.110;2022-11-15T11:20:38;0.52;;;0.22;;
55813;SDS011;41743;43.012;-0.110;2022-11-15T11:23:24;0.20;;;0.20;;
55813;SDS011;41743;43.012;-0.110;2022-11-15T11:28:51;0.20;;;0.20;;
55813;SDS011;41743;43.012;-0.110;2022-11-15T11:31:32;1.60;;;0.28;;
55813;SDS011;41743;43.012;-0.110;2022-11-15T11:41:57;0.35;;;0.20;;
55813;SDS011;41743;43.012;-0.110;2022-11-15T11:44:28;0.22;;;0.20;;
55813;SDS011;41743;43.012;-0.110;2022-11-15T11:46:59;0.20;;;0.20;;
55813;SDS011;41743;43.012;-0.110;2022-11-15T11:52:35;0.95;;;0.32;;
55813;SDS011;41743;43.012;-0.110;2022-11-15T11:55:19;0.52;;;0.28;;
55813;SDS011;41743;43.012;-0.110;2022-11-15T11:57:47;0.77;;;0.30;;
55813;SDS011;41743;43.012;-0.110;2022-11-15T12:02:55;0.38;;;0.38;;
55813;SDS011;41743;43.012;-0.110;2022-11-15T12:05:33;0.52;;;0.30;;
55813;SDS011;41743;43.012;-0.110;2022-11-15T12:11:12;1.88;;;0.30;;
55813;SDS011;41743;43.012;-0.110;2022-11-15T12:13:37;0.30;;;0.30;;
55813;SDS011;41743;43.012;-0.110;2022-11-15T12:16:17;0.20;;;0.20;;
55813;SDS011;41743;43.012;-0.110;2022-11-15T12:18:49;0.38;;;0.30;;
55813;SDS011;41743;43.012;-0.110;2022-11-15T12:23:52;0.30;;;0.30;;
55813;SDS011;41743;43.012;-0.110;2022-11-15T12:26:24;3.10;;;0.32;;
55813;SDS011;41743;43.012;-0.110;2022-11-15T12:28:53;0.25;;;0.25;;
55813;SDS011;41743;43.012;-0.110;2022-11-15T12:31:32;0.52;;;0.30;;
55813;SDS011;41743;43.012;-0.110;2022-11-15T12:34:03;0.40;;;0.30;;
55813;SDS011;41743;43.012;-0.110;2022-11-15T12:36:32;0.70;;;0.40;;
55813;SDS011;41743;43.012;-0.110;2022-11-15T12:39:01;0.20;;;0.20;;
55813;SDS011;41743;43.012;-0.110;2022-11-15T12:41:33;0.20;;;0.20;;
55813;SDS011;41743;43.012;-0.110;2022-11-15T12:44:01;2.30;;;0.30;;
55813;SDS011;41743;43.012;-0.110;2022-11-15T12:49:09;0.28;;;0.20;;
55813;SDS011;41743;43.012;-0.110;2022-11-15T13:04:54;0.47;;;0.30;;
55813;SDS011;41743;43.012;-0.110;2022-11-15T13:17:48;0.95;;;0.20;;
55813;SDS011;41743;43.012;-0.110;2022-11-15T13:20:18;0.85;;;0.40;;
55813;SDS011;41743;43.012;-0.110;2022-11-15T13:28:54;0.20;;;0.20;;
55813;SDS011;41743;43.012;-0.110;2022-11-15T13:31:30;0.20;;;0.20;;
55813;SDS011;41743;43.012;-0.110;2022-11-15T13:36:48;0.20;;;0.20;;
55813;SDS011;41743;43.012;-0.110;2022-11-15T13:39:23;0.20;;;0.20;;
55813;SDS011;41743;43.012;-0.110;2022-11-15T13:41:51;0.22;;;0.10;;
55813;SDS011;41743;43.012;-0.110;2022-11-15T13:44:38;0.15;;;0.15;;
55813;SDS011;41743;43.012;-0.110;2022-11-15T13:52:59;0.10;;;0.10;;
55813;SDS011;41743;43.012;-0.110;2022-11-15T13:55:26;0.20;;;0.20;;
55813;SDS011;41743;43.012;-0.110;2022-11-15T13:58:03;5.22;;;1.50;;
55813;SDS011;41743;43.012;-0.110;2022-11-15T14:00:46;0.73;;;0.40;;
55813;SDS011;41743;43.012;-0.110;2022-11-15T14:05:42;0.75;;;0.50;;
55813;SDS011;41743;43.012;-0.110;2022-11-15T14:08:29;0.20;;;0.20;;
55813;SDS011;41743;43.012;-0.110;2022-11-15T14:14:23;0.20;;;0.20;;
55813;SDS011;41743;43.012;-0.110;2022-11-15T14:16:47;0.20;;;0.20;;
55813;SDS011;41743;43.012;-0.110;2022-11-15T14:24:21;0.20;;;0.20;;
55813;SDS011;41743;43.012;-0.110;2022-11-15T14:26:50;0.22;;;0.20;;
55813;SDS011;41743;43.012;-0.110;2022-11-15T14:31:52;0.30;;;0.30;;
55813;SDS011;41743;43.012;-0.110;2022-11-15T14:34:18;0.20;;;0.20;;
55813;SDS011;41743;43.012;-0.110;2022-11-15T14:36:48;0.20;;;0.20;;
55813;SDS011;41743;43.012;-0.110;2022-11-15T14:39:14;4.13;;;1.67;;
55813;SDS011;41743;43.012;-0.110;2022-11-15T14:41:40;5.05;;;1.98;;
55813;SDS011;41743;43.012;-0.110;2022-11-15T14:44:10;7.85;;;3.00;;
55813;SDS011;41743;43.012;-0.110;2022-11-15T14:46:58;10.40;;;3.05;;
55813;SDS011;41743;43.012;-0.110;2022-11-15T14:49:27;3.58;;;1.20;;
55813;SDS011;41743;43.012;-0.110;2022-11-15T14:51:53;1.73;;;0.68;;
55813;SDS011;41743;43.012;-0.110;2022-11-15T14:54:19;1.40;;;0.70;;
55813;SDS011;41743;43.012;-0.110;2022-11-15T14:56:45;0.40;;;0.20;;
55813;SDS011;41743;43.012;-0.110;2022-11-15T14:59:11;0.85;;;0.30;;
55813;SDS011;41743;43.012;-0.110;2022-11-15T15:01:37;0.57;;;0.40;;
55813;SDS011;41743;43.012;-0.110;2022-11-15T15:04:04;0.95;;;0.28;;
55813;SDS011;41743;43.012;-0.110;2022-11-15T15:06:30;0.10;;;0.10;;
55813;SDS011;41743;43.012;-0.110;2022-11-15T15:08:56;2.25;;;0.68;;
55813;SDS011;41743;43.012;-0.110;2022-11-15T15:11:24;2.65;;;0.30;;
55813;SDS011;41743;43.012;-0.110;2022-11-15T15:13:51;0.40;;;0.30;;
55813;SDS011;41743;43.012;-0.110;2022-11-15T15:16:18;0.20;;;0.20;;
55813;SDS011;41743;43.012;-0.110;2022-11-15T15:18:44;0.35;;;0.30;;
55813;SDS011;41743;43.012;-0.110;2022-11-15T15:21:23;0.28;;;0.28;;
55813;SDS011;41743;43.012;-0.110;2022-11-15T15:23:50;0.43;;;0.20;;
55813;SDS011;41743;43.012;-0.110;2022-11-15T15:26:16;0.28;;;0.20;;
55813;SDS011;41743;43.012;-0.110;2022-11-15T15:28:43;0.10;;;0.10;;
55813;SDS011;41743;43.012;-0.110;2022-11-15T15:31:09;0.28;;;0.20;;
55813;SDS011;41743;43.012;-0.110;2022-11-15T15:33:35;0.30;;;0.30;;
55813;SDS011;41743;43.012;-0.110;2022-11-15T15:36:02;18.92;;;7.55;;
55813;SDS011;41743;43.012;-0.110;2022-11-15T15:38:28;4.53;;;1.23;;
55813;SDS011;41743;43.012;-0.110;2022-11-15T15:40:54;13.90;;;4.95;;
55813;SDS011;41743;43.012;-0.110;2022-11-15T15:43:21;22.58;;;10.18;;
55813;SDS011;41743;43.012;-0.110;2022-11-15T15:45:47;8.98;;;3.40;;
55813;SDS011;41743;43.012;-0.110;2022-11-15T15:48:15;3.00;;;1.55;;
55813;SDS011;41743;43.012;-0.110;2022-11-15T15:51:26;6.35;;;2.97;;
55813;SDS011;41743;43.012;-0.110;2022-11-15T15:53:33;7.15;;;3.05;;
55813;SDS011;41743;43.012;-0.110;2022-11-15T15:56:00;1.23;;;0.73;;
55813;SDS011;41743;43.012;-0.110;2022-11-15T15:58:29;0.73;;;0.35;;
55813;SDS011;41743;43.012;-0.110;2022-11-15T16:01:00;0.63;;;0.25;;
55813;SDS011;41743;43.012;-0.110;2022-11-15T16:03:26;0.10;;;0.10;;
55813;SDS011;41743;43.012;-0.110;2022-11-15T16:05:53;0.10;;;0.10;;
55813;SDS011;41743;43.012;-0.110;2022-11-15T16:08:20;0.35;;;0.22;;
55813;SDS011;41743;43.012;-0.110;2022-11-15T16:10:56;0.75;;;0.20;;
55813;SDS011;41743;43.012;-0.110;2022-11-15T16:13:22;0.70;;;0.40;;
55813;SDS011;41743;43.012;-0.110;2022-11-15T16:15:49;0.30;;;0.30;;
55813;SDS011;41743;43.012;-0.110;2022-11-15T16:18:17;1.10;;;0.50;;
55813;SDS011;41743;43.012;-0.110;2022-11-15T16:20:46;0.38;;;0.28;;
55813;SDS011;41743;43.012;-0.110;2022-11-15T16:23:16;0.25;;;0.25;;
55813;SDS011;41743;43.012;-0.110;2022-11-15T16:25:57;0.75;;;0.40;;
55813;SDS011;41743;43.012;-0.110;2022-11-15T16:28:24;0.30;;;0.30;;
55813;SDS011;41743;43.012;-0.110;2022-11-15T16:31:01;0.25;;;0.25;;
55813;SDS011;41743;43.012;-0.110;2022-11-15T16:33:34;0.13;;;0.13;;
55813;SDS011;41743;43.012;-0.110;2022-11-15T16:36:04;0.10;;;0.10;;
55813;SDS011;41743;43.012;-0.110;2022-11-15T16:38:33;0.50;;;0.40;;
55813;SDS011;41743;43.012;-0.110;2022-11-15T16:41:07;0.40;;;0.40;;
55813;SDS011;41743;43.012;-0.110;2022-11-15T16:43:33;0.55;;;0.30;;
55813;SDS011;41743;43.012;-0.110;2022-11-15T16:46:02;0.20;;;0.20;;
55813;SDS011;41743;43.012;-0.110;2022-11-15T16:48:55;0.20;;;0.20;;
55813;SDS011;41743;43.012;-0.110;2022-11-15T16:51:22;0.57;;;0.20;;
55813;SDS011;41743;43.012;-0.110;2022-11-15T17:03:04;0.10;;;0.10;;
55813;SDS011;41743;43.012;-0.110;2022-11-15T17:05:58;0.40;;;0.40;;
55813;SDS011;41743;43.012;-0.110;2022-11-15T17:08:27;1.42;;;0.70;;
55813;SDS011;41743;43.012;-0.110;2022-11-15T17:10:56;0.30;;;0.30;;
55813;SDS011;41743;43.012;-0.110;2022-11-15T17:13:25;0.20;;;0.20;;
55813;SDS011;41743;43.012;-0.110;2022-11-15T17:16:06;0.43;;;0.30;;
55813;SDS011;41743;43.012;-0.110;2022-11-15T17:18:33;0.20;;;0.20;;
55813;SDS011;41743;43.012;-0.110;2022-11-15T17:27:20;1.40;;;0.70;;
55813;SDS011;41743;43.012;-0.110;2022-11-15T17:29:47;5.88;;;2.60;;
55813;SDS011;41743;43.012;-0.110;2022-11-15T17:35:07;0.40;;;0.30;;
55813;SDS011;41743;43.012;-0.110;2022-11-15T17:37:58;0.10;;;0.10;;
55813;SDS011;41743;43.012;-0.110;2022-11-15T17:40:26;0.10;;;0.10;;
55813;SDS011;41743;43.012;-0.110;2022-11-15T17:42:57;1.90;;;0.98;;
55813;SDS011;41743;43.012;-0.110;2022-11-15T17:45:26;2.92;;;0.98;;
55813;SDS011;41743;43.012;-0.110;2022-11-15T17:47:53;0.20;;;0.20;;
55813;SDS011;41743;43.012;-0.110;2022-11-15T17:50:19;0.55;;;0.20;;
55813;SDS011;41743;43.012;-0.110;2022-11-15T17:52:45;0.30;;;0.30;;
55813;SDS011;41743;43.012;-0.110;2022-11-15T18:08:00;0.38;;;0.30;;
55813;SDS011;41743;43.012;-0.110;2022-11-15T18:10:29;0.55;;;0.20;;
55813;SDS011;41743;43.012;-0.110;2022-11-15T18:12:55;0.28;;;0.20;;
55813;SDS011;41743;43.012;-0.110;2022-11-15T18:15:22;0.22;;;0.20;;
55813;SDS011;41743;43.012;-0.110;2022-11-15T18:17:48;8.77;;;4.35;;
55813;SDS011;41743;43.012;-0.110;2022-11-15T18:20:14;1.35;;;0.40;;
55813;SDS011;41743;43.012;-0.110;2022-11-15T18:22:41;0.68;;;0.50;;
55813;SDS011;41743;43.012;-0.110;2022-11-15T18:25:07;1.08;;;0.75;;
55813;SDS011;41743;43.012;-0.110;2022-11-15T18:27:36;1.15;;;0.70;;
55813;SDS011;41743;43.012;-0.110;2022-11-15T18:33:14;0.35;;;0.35;;
55813;SDS011;41743;43.012;-0.110;2022-11-15T18:35:40;0.80;;;0.55;;
55813;SDS011;41743;43.012;-0.110;2022-11-15T18:38:06;0.80;;;0.60;;
55813;SDS011;41743;43.012;-0.110;2022-11-15T18:40:35;3.33;;;1.70;;
55813;SDS011;41743;43.012;-0.110;2022-11-15T18:43:10;5.35;;;2.60;;
55813;SDS011;41743;43.012;-0.110;2022-11-15T20:13:01;1.15;;;0.63;;
55813;SDS011;41743;43.012;-0.110;2022-11-15T22:53:40;5.70;;;0.80;;
55813;SDS011;41743;43.012;-0.110;2022-11-15T22:56:39;2.20;;;0.90;;
55813;SDS011;41743;43.012;-0.110;2022-11-15T22:59:25;4.90;;;1.00;;
55813;SDS011;41743;43.012;-0.110;2022-11-15T23:02:31;3.53;;;0.80;;
55813;SDS011;41743;43.012;-0.110;2022-11-15T23:05:08;6.00;;;1.33;;
55813;SDS011;41743;43.012;-0.110;2022-11-15T23:11:03;2.42;;;0.73;;
55813;SDS011;41743;43.012;-0.110;2022-11-15T23:13:54;4.72;;;1.10;;
55813;SDS011;41743;43.012;-0.110;2022-11-15T23:16:26;3.75;;;0.90;;
55813;SDS011;41743;43.012;-0.110;2022-11-15T23:19:03;1.00;;;0.60;;
55813;SDS011;41743;43.012;-0.110;2022-11-15T23:21:44;3.33;;;0.68;;
55813;SDS011;41743;43.012;-0.110;2022-11-15T23:24:29;1.88;;;0.50;;
55813;SDS011;41743;43.012;-0.110;2022-11-15T23:30:41;2.42;;;0.85;;
55813;SDS011;41743;43.012;-0.110;2022-11-15T23:33:27;4.80;;;0.80;;
55813;SDS011;41743;43.012;-0.110;2022-11-15T23:36:11;1.73;;;0.60;;
